createdAt,value
2024-05-09T00:00:51.437Z,30.60
2024-05-09T00:03:21.989Z,29.33
2024-05-09T00:05:52.000Z,29.75
2024-05-09T00:08:25.461Z,30.55
2024-05-09T00:10:56.020Z,30.63
2024-05-09T00:13:25.948Z,32.08
2024-05-09T00:15:55.917Z,32.47
2024-05-09T00:18:25.953Z,30.58
2024-05-09T00:20:55.991Z,30.67
2024-05-09T00:23:29.211Z,30.35
2024-05-09T00:25:59.429Z,29.38
2024-05-09T00:28:29.415Z,28.40
2024-05-09T00:30:59.401Z,29.70
2024-05-09T00:33:29.656Z,30.80
2024-05-09T00:35:59.801Z,26.70
2024-05-09T00:38:32.507Z,27.27
2024-05-09T00:41:02.660Z,29.27
2024-05-09T00:43:32.791Z,30.75
2024-05-09T00:46:03.102Z,28.67
2024-05-09T00:48:33.406Z,27.98
2024-05-09T00:51:04.474Z,31.55
2024-05-09T00:53:37.494Z,27.48
2024-05-09T00:56:08.393Z,24.73
2024-05-09T00:58:38.563Z,26.23
2024-05-09T01:03:45.270Z,27.33
2024-05-09T01:06:16.664Z,23.90
2024-05-09T01:08:50.172Z,26.13
2024-05-09T01:11:21.217Z,27.85
2024-05-09T01:13:51.567Z,28.38
2024-05-09T01:16:22.194Z,26.05
2024-05-09T01:18:52.929Z,28.08
2024-05-09T01:21:22.960Z,30.42
2024-05-09T01:23:55.617Z,27.23
2024-05-09T01:26:25.662Z,28.83
2024-05-09T01:28:55.689Z,29.08
2024-05-09T01:31:25.674Z,28.95
2024-05-09T01:33:55.816Z,28.17
2024-05-09T01:36:25.820Z,27.58
2024-05-09T01:38:58.448Z,27.80
2024-05-09T01:41:28.468Z,30.50
2024-05-09T01:43:58.604Z,28.48
2024-05-09T01:46:28.554Z,27.15
2024-05-09T01:48:59.036Z,28.20
2024-05-09T01:51:29.063Z,29.38
2024-05-09T01:54:01.668Z,28.25
2024-05-09T01:56:31.594Z,25.20
2024-05-09T01:59:02.001Z,25.60
2024-05-09T02:01:55.338Z,27.75
2024-05-09T02:04:22.121Z,25.98
2024-05-09T02:06:52.159Z,26.52
2024-05-09T02:09:25.731Z,26.40
2024-05-09T02:11:56.772Z,24.92
2024-05-09T02:14:26.929Z,24.90
2024-05-09T02:16:57.018Z,23.83
2024-05-09T02:19:27.126Z,27.85
2024-05-09T02:21:57.124Z,25.70
2024-05-09T02:24:29.682Z,26.63
2024-05-09T02:26:59.582Z,25.08
2024-05-09T02:29:29.896Z,28.30
2024-05-09T02:32:00.028Z,27.33
2024-05-09T02:34:30.053Z,26.90
2024-05-09T02:37:00.012Z,24.85
2024-05-09T02:39:29.911Z,23.05
2024-05-09T02:41:59.823Z,24.40
2024-05-09T02:44:27.225Z,28.50
2024-05-09T02:46:57.223Z,24.17
2024-05-09T02:49:24.726Z,24.88
2024-05-09T02:51:54.769Z,24.42
2024-05-09T02:54:22.071Z,23.48
2024-05-09T02:56:54.642Z,25.75
2024-05-09T02:59:22.251Z,27.50
2024-05-09T03:01:52.467Z,23.60
2024-05-09T03:04:19.950Z,21.63
2024-05-09T03:06:50.168Z,23.00
2024-05-09T03:09:17.826Z,22.17
2024-05-09T03:11:47.918Z,25.05
2024-05-09T03:14:19.615Z,24.67
2024-05-09T03:16:49.730Z,23.40
2024-05-09T03:19:17.323Z,23.33
2024-05-09T03:21:47.411Z,23.80
2024-05-09T03:24:14.727Z,23.65
2024-05-09T03:26:44.862Z,22.20
2024-05-09T03:29:12.308Z,20.63
2024-05-09T03:31:45.322Z,21.67
2024-05-09T03:34:12.850Z,22.00
2024-05-09T03:36:45.309Z,23.95
2024-05-09T03:39:15.353Z,24.75
2024-05-09T03:41:45.338Z,22.10
2024-05-09T03:44:15.349Z,22.05
2024-05-09T03:46:45.408Z,23.15
2024-05-09T03:49:15.515Z,22.80
2024-05-09T03:51:42.930Z,29.60
2024-05-09T03:54:13.037Z,21.88
2024-05-09T03:56:40.516Z,22.77
2024-05-09T03:59:10.586Z,24.73
2024-05-09T04:01:38.127Z,20.27
2024-05-09T04:04:12.429Z,21.40
2024-05-09T04:06:39.821Z,21.00
2024-05-09T04:09:09.734Z,23.17
2024-05-09T04:11:37.130Z,20.73
2024-05-09T04:14:07.231Z,21.80
2024-05-09T04:16:34.603Z,21.98
2024-05-09T04:19:04.663Z,21.27
2024-05-09T04:21:37.511Z,25.90
2024-05-09T04:24:05.461Z,27.30
2024-05-09T04:26:35.538Z,28.42
2024-05-09T04:29:02.916Z,25.98
2024-05-09T04:31:32.852Z,26.08
2024-05-09T04:34:00.351Z,29.38
2024-05-09T04:36:30.402Z,26.38
2024-05-09T04:39:00.316Z,24.83
2024-05-09T04:41:30.294Z,24.10
2024-05-09T04:43:57.660Z,23.73
2024-05-09T04:46:27.634Z,25.10
2024-05-09T04:48:55.076Z,22.05
2024-05-09T04:51:25.242Z,21.20
2024-05-09T04:53:52.672Z,24.30
2024-05-09T04:56:25.447Z,21.08
2024-05-09T04:58:52.869Z,18.65
2024-05-09T05:01:22.885Z,19.48
2024-05-09T05:03:50.488Z,21.23
2024-05-09T05:06:20.594Z,21.50
2024-05-09T05:08:47.875Z,22.10
2024-05-09T05:11:17.967Z,21.83
2024-05-09T05:13:48.062Z,22.10
2024-05-09T05:16:18.044Z,23.02
2024-05-09T05:18:45.558Z,21.30
2024-05-09T05:21:15.834Z,24.55
2024-05-09T05:23:43.448Z,20.83
2024-05-09T05:26:13.553Z,23.00
2024-05-09T05:28:40.904Z,21.42
2024-05-09T05:31:13.613Z,20.60
2024-05-09T05:33:41.313Z,20.08
2024-05-09T05:36:12.175Z,19.45
2024-05-09T05:38:39.627Z,21.75
2024-05-09T05:41:09.793Z,20.65
2024-05-09T05:43:37.089Z,20.83
2024-05-09T05:46:07.255Z,20.80
2024-05-09T05:48:37.375Z,22.92
2024-05-09T05:51:07.913Z,19.20
2024-05-09T05:53:35.373Z,20.90
2024-05-09T05:56:05.500Z,19.00
2024-05-09T05:58:33.102Z,21.45
2024-05-09T06:01:03.112Z,18.10
2024-05-09T06:03:30.660Z,20.55
2024-05-09T06:06:05.785Z,18.83
2024-05-09T06:08:33.659Z,18.38
2024-05-09T06:11:03.764Z,18.33
2024-05-09T06:13:31.256Z,19.08
2024-05-09T06:16:02.445Z,16.15
2024-05-09T06:18:30.147Z,16.35
2024-05-09T06:21:02.973Z,14.45
2024-05-09T06:23:30.357Z,17.90
2024-05-09T06:26:00.448Z,15.30
2024-05-09T06:28:27.868Z,16.77
2024-05-09T06:30:57.838Z,14.02
2024-05-09T06:33:25.427Z,13.80
2024-05-09T06:35:59.418Z,11.70
2024-05-09T06:38:29.544Z,14.90
2024-05-09T06:40:59.679Z,10.95
2024-05-09T06:43:26.985Z,16.70
2024-05-09T06:45:56.941Z,15.05
2024-05-09T06:48:24.553Z,11.43
2024-05-09T06:50:54.711Z,13.25
2024-05-09T06:53:23.155Z,13.95
2024-05-09T06:55:55.821Z,13.68
2024-05-09T06:58:23.156Z,9.20
2024-05-09T07:00:53.167Z,11.98
2024-05-09T07:03:20.691Z,11.70
2024-05-09T07:05:50.777Z,9.25
2024-05-09T07:08:18.673Z,10.73
2024-05-09T07:10:49.251Z,13.93
2024-05-09T07:13:19.352Z,14.27
2024-05-09T07:15:49.368Z,11.80
2024-05-09T07:18:18.595Z,13.13
2024-05-09T07:20:50.614Z,12.77
2024-05-09T07:23:19.160Z,13.77
2024-05-09T07:25:49.542Z,9.57
2024-05-09T07:28:20.600Z,11.10
2024-05-09T07:30:50.634Z,10.32
2024-05-09T07:33:18.783Z,8.88
2024-05-09T07:35:49.548Z,9.23
2024-05-09T07:38:17.110Z,8.48
2024-05-09T07:40:47.267Z,15.38
2024-05-09T07:43:15.866Z,10.73
2024-05-09T07:45:53.628Z,11.00
2024-05-09T07:52:46.035Z,9.02
2024-05-09T07:53:49.211Z,11.02
2024-05-09T07:56:23.853Z,12.55
2024-05-09T07:58:52.710Z,12.40
2024-05-09T08:01:27.242Z,9.45
2024-05-09T08:03:55.216Z,9.48
2024-05-09T08:06:25.838Z,8.52
2024-05-09T08:08:53.259Z,10.57
2024-05-09T08:11:23.964Z,8.65
2024-05-09T08:13:51.414Z,8.63
2024-05-09T08:16:21.634Z,7.00
2024-05-09T08:18:51.906Z,7.80
2024-05-09T08:21:22.001Z,7.00
2024-05-09T08:23:49.432Z,7.72
2024-05-09T08:26:19.355Z,6.28
2024-05-09T08:28:46.767Z,8.23
2024-05-09T08:31:16.858Z,6.95
2024-05-09T08:33:45.339Z,7.22
2024-05-09T08:36:18.217Z,6.57
2024-05-09T08:38:45.714Z,8.13
2024-05-09T08:41:18.033Z,6.43
2024-05-09T08:43:46.157Z,5.82
2024-05-09T08:46:18.606Z,6.10
2024-05-09T08:48:50.785Z,8.82
2024-05-09T08:51:20.973Z,7.00
2024-05-09T08:53:50.899Z,5.45
2024-05-09T08:56:20.583Z,6.88
2024-05-09T08:58:52.822Z,6.15
2024-05-09T09:01:21.170Z,7.10
2024-05-09T09:03:53.597Z,6.93
2024-05-09T09:06:25.631Z,4.63
2024-05-09T09:08:56.133Z,8.05
2024-05-09T09:11:23.614Z,6.28
2024-05-09T09:13:53.549Z,4.38
2024-05-09T09:16:31.213Z,5.55
2024-05-09T09:19:01.346Z,5.65
2024-05-09T09:21:31.660Z,6.93
2024-05-09T09:24:01.696Z,4.90
2024-05-09T09:26:31.653Z,5.82
2024-05-09T09:29:03.601Z,7.10
2024-05-09T09:31:31.248Z,6.57
2024-05-09T09:34:01.409Z,5.28
2024-05-09T09:36:31.972Z,6.00
2024-05-09T09:39:02.145Z,10.32
2024-05-09T09:41:31.646Z,5.20
2024-05-09T09:44:02.975Z,6.90
2024-05-09T09:46:31.122Z,7.43
2024-05-09T09:49:01.471Z,6.90
2024-05-09T09:51:33.233Z,5.93
2024-05-09T09:54:06.419Z,5.60
2024-05-09T09:56:35.458Z,4.75
2024-05-09T09:59:08.200Z,4.35
2024-05-09T10:01:36.908Z,5.57
2024-05-09T10:04:08.136Z,4.03
2024-05-09T10:06:42.370Z,7.97
2024-05-09T10:09:16.387Z,4.65
2024-05-09T10:11:49.160Z,4.57
2024-05-09T10:14:25.084Z,5.95
2024-05-09T10:16:52.474Z,6.43
2024-05-09T10:19:27.478Z,3.92
2024-05-09T10:22:04.643Z,5.30
2024-05-09T10:24:50.615Z,5.93
2024-05-09T10:27:26.506Z,5.10
2024-05-09T10:29:58.942Z,4.57
2024-05-09T10:32:28.508Z,4.75
2024-05-09T10:35:11.686Z,4.95
2024-05-09T10:37:41.892Z,5.40
2024-05-09T10:40:26.098Z,4.97
2024-05-09T10:43:03.493Z,3.80
2024-05-09T10:45:37.801Z,4.53
2024-05-09T10:48:06.239Z,7.47
2024-05-09T10:50:36.417Z,3.97
2024-05-09T10:53:06.476Z,3.97
2024-05-09T10:55:36.434Z,3.88
2024-05-09T10:58:04.029Z,3.45
2024-05-09T11:00:36.526Z,6.03
2024-05-09T11:03:04.639Z,3.97
2024-05-09T11:05:35.855Z,6.55
2024-05-09T11:08:06.622Z,4.38
2024-05-09T11:10:36.806Z,4.95
2024-05-09T11:13:04.486Z,3.88
2024-05-09T11:15:41.494Z,6.95
2024-05-09T11:18:23.610Z,4.63
2024-05-09T11:20:55.086Z,3.70
2024-05-09T11:23:26.710Z,7.20
2024-05-09T11:25:57.902Z,5.57
2024-05-09T11:28:28.800Z,6.25
2024-05-09T11:31:09.093Z,7.28
2024-05-09T11:33:37.688Z,5.30
2024-05-09T11:36:08.776Z,5.22
2024-05-09T11:38:38.835Z,3.92
2024-05-09T11:41:09.352Z,4.00
2024-05-09T11:43:36.742Z,5.88
2024-05-09T11:46:06.909Z,5.55
2024-05-09T11:48:34.573Z,3.70
2024-05-09T11:51:04.718Z,3.20
2024-05-09T11:53:32.045Z,4.38
2024-05-09T11:56:04.740Z,5.93
2024-05-09T11:58:34.628Z,4.28
2024-05-09T12:01:04.968Z,7.45
2024-05-09T12:03:32.574Z,3.38
2024-05-09T12:06:02.834Z,5.47
2024-05-09T12:08:30.340Z,3.47
2024-05-09T12:11:00.712Z,5.25
2024-05-09T12:13:30.996Z,4.35
2024-05-09T12:16:01.674Z,5.25
2024-05-09T12:18:29.217Z,4.75
2024-05-09T12:20:59.362Z,4.25
2024-05-09T12:23:26.717Z,6.38
2024-05-09T12:25:57.113Z,8.90
2024-05-09T12:28:26.397Z,4.82
2024-05-09T12:30:59.054Z,8.07
2024-05-09T12:33:26.484Z,7.35
2024-05-09T12:35:56.539Z,3.28
2024-05-09T12:38:23.875Z,6.13
2024-05-09T12:40:54.322Z,6.13
2024-05-09T12:43:21.842Z,6.45
2024-05-09T12:45:51.920Z,5.13
2024-05-09T12:48:22.181Z,6.90
2024-05-09T12:50:52.305Z,4.47
2024-05-09T12:53:19.628Z,4.10
2024-05-09T12:55:56.648Z,9.07
2024-05-09T12:58:27.824Z,3.10
2024-05-09T13:00:57.854Z,2.92
2024-05-09T13:03:28.041Z,3.95
2024-05-09T13:05:58.354Z,6.68
2024-05-09T13:08:25.779Z,6.20
2024-05-09T13:10:55.838Z,6.78
2024-05-09T13:13:23.170Z,2.53
2024-05-09T13:15:53.246Z,3.97
2024-05-09T13:18:20.599Z,3.20
2024-05-09T13:20:53.172Z,3.17
2024-05-09T13:23:20.465Z,5.55
2024-05-09T13:25:50.456Z,5.30
2024-05-09T13:28:18.241Z,6.80
2024-05-09T13:30:48.317Z,3.78
2024-05-09T13:33:15.916Z,4.47
2024-05-09T13:35:49.680Z,3.53
2024-05-09T13:38:21.927Z,3.97
2024-05-09T13:40:52.172Z,3.72
2024-05-09T13:43:22.032Z,3.90
2024-05-09T13:45:52.379Z,5.43
2024-05-09T13:48:20.115Z,5.10
2024-05-09T13:50:50.462Z,4.00
2024-05-09T13:53:18.157Z,4.63
2024-05-09T13:55:51.715Z,6.20
2024-05-09T13:58:19.550Z,4.72
2024-05-09T14:00:49.939Z,3.80
2024-05-09T14:03:19.756Z,5.30
2024-05-09T14:05:52.240Z,5.93
2024-05-09T14:08:22.259Z,3.13
2024-05-09T14:10:56.248Z,6.88
2024-05-09T14:13:23.944Z,5.65
2024-05-09T14:15:54.405Z,3.78
2024-05-09T14:18:22.242Z,8.02
2024-05-09T14:20:52.471Z,5.32
2024-05-09T14:23:20.127Z,4.00
2024-05-09T14:25:53.032Z,3.95
2024-05-09T14:28:24.721Z,6.20
2024-05-09T14:30:56.624Z,3.78
2024-05-09T14:33:26.849Z,2.58
2024-05-09T14:35:57.408Z,3.25
2024-05-09T14:38:25.255Z,4.40
2024-05-09T14:40:55.925Z,3.85
2024-05-09T14:43:28.990Z,4.38
2024-05-09T14:45:57.030Z,6.80
2024-05-09T14:48:27.430Z,5.20
2024-05-09T14:50:55.097Z,3.80
2024-05-09T14:53:27.118Z,3.17
2024-05-09T14:55:55.293Z,3.88
2024-05-09T14:58:25.817Z,6.73
2024-05-09T15:00:56.250Z,4.30
2024-05-09T15:03:27.291Z,5.85
2024-05-09T15:05:55.170Z,3.38
2024-05-09T15:08:25.437Z,5.07
2024-05-09T15:10:53.339Z,3.63
2024-05-09T15:13:24.157Z,3.28
2024-05-09T15:15:52.124Z,3.33
2024-05-09T15:18:25.064Z,4.10
2024-05-09T15:20:52.722Z,3.05
2024-05-09T15:23:23.271Z,2.90
2024-05-09T15:25:51.045Z,5.05
2024-05-09T15:28:21.553Z,4.88
2024-05-09T15:30:49.331Z,4.32
2024-05-09T15:33:19.647Z,4.25
2024-05-09T15:35:51.653Z,3.38
2024-05-09T15:38:22.209Z,6.75
2024-05-09T15:40:49.991Z,4.20
2024-05-09T15:43:20.331Z,3.83
2024-05-09T15:45:47.945Z,4.13
2024-05-09T15:48:18.378Z,5.00
2024-05-09T15:50:46.200Z,5.40
2024-05-09T15:53:19.210Z,4.93
2024-05-09T15:55:49.449Z,2.92
2024-05-09T15:58:17.296Z,3.78
2024-05-09T16:00:49.745Z,4.88
2024-05-09T16:03:21.321Z,5.30
2024-05-09T16:05:52.345Z,5.05
2024-05-09T16:08:22.726Z,3.00
2024-05-09T16:10:53.095Z,4.65
2024-05-09T16:13:20.943Z,3.47
2024-05-09T16:15:51.618Z,3.47
2024-05-09T16:18:19.785Z,4.43
2024-05-09T16:20:50.842Z,3.53
2024-05-09T16:23:18.548Z,4.32
2024-05-09T16:25:51.918Z,3.83
2024-05-09T16:28:20.530Z,4.20
2024-05-09T16:30:51.960Z,7.45
2024-05-09T16:33:23.888Z,6.10
2024-05-09T16:35:51.719Z,5.45
2024-05-09T16:38:22.226Z,4.38
2024-05-09T16:40:52.752Z,4.40
2024-05-09T16:43:24.212Z,4.43
2024-05-09T16:45:52.021Z,4.28
2024-05-09T16:48:22.691Z,3.80
2024-05-09T16:50:50.333Z,4.20
2024-05-09T16:53:20.952Z,4.53
2024-05-09T16:55:48.675Z,4.32
2024-05-09T16:58:22.062Z,6.53
2024-05-09T17:00:49.816Z,5.07
2024-05-09T17:03:21.250Z,5.47
2024-05-09T17:05:50.483Z,5.70
2024-05-09T17:10:49.514Z,9.18
2024-05-09T17:15:53.487Z,4.97
2024-05-09T17:18:23.960Z,4.55
2024-05-09T17:20:52.498Z,6.82
2024-05-09T17:23:22.796Z,7.13
2024-05-09T17:25:50.536Z,4.30
2024-05-09T17:28:21.238Z,4.65
2024-05-09T17:30:51.698Z,5.97
2024-05-09T17:33:22.064Z,7.10
2024-05-09T17:35:51.387Z,6.55
2024-05-09T17:38:23.019Z,9.82
2024-05-09T17:40:52.032Z,5.18
2024-05-09T17:43:22.647Z,4.32
2024-05-09T17:45:55.655Z,7.00
2024-05-09T17:48:23.424Z,7.60
2024-05-09T17:50:54.167Z,7.32
2024-05-09T17:53:21.922Z,9.25
2024-05-09T17:55:53.921Z,13.40
2024-05-09T17:58:21.586Z,20.55
2024-05-09T18:00:54.483Z,21.90
2024-05-09T18:03:23.374Z,20.38
2024-05-09T18:05:53.700Z,21.20
2024-05-09T18:08:21.100Z,15.38
2024-05-09T18:10:52.714Z,14.05
2024-05-09T18:13:21.484Z,11.00
2024-05-09T18:15:54.193Z,10.82
2024-05-09T18:18:21.651Z,13.60
2024-05-09T18:20:52.673Z,12.00
2024-05-09T18:23:20.119Z,22.50
2024-05-09T18:25:54.648Z,25.38
2024-05-09T18:28:22.555Z,16.52
2024-05-09T18:30:55.382Z,12.20
2024-05-09T18:33:24.635Z,10.45
2024-05-09T18:38:25.623Z,10.90
2024-05-09T18:40:55.881Z,10.05
2024-05-09T18:43:28.907Z,10.23
2024-05-09T18:46:08.763Z,9.07
2024-05-09T18:48:36.315Z,8.60
2024-05-09T18:51:06.855Z,13.05
2024-05-09T18:53:34.203Z,6.97
2024-05-09T18:56:04.254Z,9.48
2024-05-09T18:58:31.553Z,8.93
2024-05-09T19:01:01.941Z,8.77
2024-05-09T19:03:32.530Z,7.80
2024-05-09T19:06:02.824Z,6.07
2024-05-09T19:08:30.208Z,5.53
2024-05-09T19:11:01.839Z,6.97
2024-05-09T19:13:29.382Z,7.72
2024-05-09T19:15:59.585Z,6.82
2024-05-09T19:18:27.310Z,8.93
2024-05-09T19:21:03.113Z,8.13
2024-05-09T19:23:35.182Z,6.45
2024-05-09T19:26:08.548Z,9.45
2024-05-09T19:28:35.852Z,8.20
2024-05-09T19:31:05.774Z,11.63
2024-05-09T19:33:33.267Z,7.38
2024-05-09T19:36:06.008Z,11.30
2024-05-09T19:38:34.419Z,6.03
2024-05-09T19:41:04.351Z,7.25
2024-05-09T19:43:33.853Z,7.95
2024-05-09T19:46:05.772Z,8.68
2024-05-09T19:48:33.244Z,7.30
2024-05-09T19:51:06.052Z,8.35
2024-05-09T19:53:33.428Z,7.50
2024-05-09T19:56:03.365Z,10.95
2024-05-09T19:58:30.747Z,10.05
2024-05-09T20:01:00.983Z,12.50
2024-05-09T20:03:28.457Z,10.40
2024-05-09T20:05:59.070Z,15.00
2024-05-09T20:08:29.086Z,16.38
2024-05-09T20:10:59.212Z,9.25
2024-05-09T20:13:26.863Z,11.05
2024-05-09T20:15:56.928Z,8.63
2024-05-09T20:18:24.316Z,7.20
2024-05-09T20:20:54.426Z,10.07
2024-05-09T20:23:21.910Z,9.10
2024-05-09T20:25:54.511Z,7.97
2024-05-09T20:28:21.972Z,8.07
2024-05-09T20:30:52.133Z,10.13
2024-05-09T20:33:19.524Z,6.88
2024-05-09T20:35:49.514Z,6.47
2024-05-09T20:38:16.807Z,8.40
2024-05-09T20:40:46.761Z,6.32
2024-05-09T20:43:16.897Z,7.88
2024-05-09T20:45:47.003Z,8.23
2024-05-09T20:48:14.423Z,7.22
2024-05-09T20:50:44.724Z,7.70
2024-05-09T20:53:14.010Z,8.73
2024-05-09T20:55:45.634Z,13.55
2024-05-09T20:58:15.886Z,8.85
2024-05-09T21:00:46.754Z,9.48
2024-05-09T21:03:16.310Z,12.88
2024-05-09T21:05:48.256Z,12.20
2024-05-09T21:08:16.850Z,13.80
2024-05-09T21:10:46.888Z,11.07
2024-05-09T21:13:16.948Z,10.30
2024-05-09T21:15:47.090Z,11.20
2024-05-09T21:18:14.502Z,9.25
2024-05-09T21:20:44.591Z,24.25
2024-05-09T21:23:11.887Z,46.00
2024-05-09T21:25:41.874Z,45.20
2024-05-09T21:28:09.394Z,36.95
2024-05-09T21:30:43.239Z,32.75
2024-05-09T21:33:12.954Z,31.88
2024-05-09T21:35:44.921Z,23.52
2024-05-09T21:38:14.215Z,25.45
2024-05-09T21:40:45.327Z,24.45
2024-05-09T21:43:12.914Z,19.23
2024-05-09T21:45:45.753Z,16.60
2024-05-09T21:48:13.423Z,11.65
2024-05-09T21:50:43.592Z,13.75
2024-05-09T21:53:11.327Z,10.30
2024-05-09T21:55:41.511Z,10.18
2024-05-09T21:58:09.008Z,8.07
2024-05-09T22:00:40.741Z,10.18
2024-05-09T22:03:12.268Z,9.02
2024-05-09T22:05:44.776Z,7.57
2024-05-09T22:08:12.702Z,7.25
2024-05-09T22:10:43.411Z,8.25
2024-05-09T22:13:11.144Z,8.98
2024-05-09T22:15:42.574Z,7.93
2024-05-09T22:18:12.870Z,7.25
2024-05-09T22:20:45.417Z,6.68
2024-05-09T22:23:14.240Z,7.40
2024-05-09T22:25:44.324Z,6.38
2024-05-09T22:28:14.546Z,9.55
2024-05-09T22:30:47.267Z,8.18
2024-05-09T22:33:18.024Z,5.88
2024-05-09T22:35:48.214Z,7.10
2024-05-09T22:38:15.635Z,7.15
2024-05-09T22:40:48.870Z,9.48
2024-05-09T22:43:19.407Z,8.00
2024-05-09T22:45:50.301Z,8.23
2024-05-09T22:48:20.862Z,7.68
2024-05-09T22:50:50.922Z,7.88
2024-05-09T22:53:18.638Z,8.48
2024-05-09T22:55:48.569Z,8.73
2024-05-09T22:58:16.154Z,7.70
2024-05-09T23:00:46.356Z,9.65
2024-05-09T23:03:15.937Z,6.88
2024-05-09T23:08:15.660Z,6.22
2024-05-09T23:10:46.340Z,8.85
2024-05-09T23:13:13.839Z,9.05
2024-05-09T23:15:44.058Z,9.70
2024-05-09T23:18:11.514Z,7.03
2024-05-09T23:20:41.622Z,7.95
2024-05-09T23:23:12.322Z,11.75
2024-05-09T23:25:43.701Z,7.03
2024-05-09T23:28:11.214Z,9.43
2024-05-09T23:30:42.177Z,9.70
2024-05-09T23:33:11.003Z,9.23
2024-05-09T23:35:41.348Z,11.18
2024-05-09T23:38:11.361Z,9.65
2024-05-09T23:40:42.444Z,7.90
2024-05-09T23:43:11.845Z,8.70
2024-05-09T23:45:42.866Z,8.55
2024-05-09T23:48:11.143Z,7.28
2024-05-09T23:50:41.638Z,9.75
2024-05-09T23:53:11.954Z,8.43
2024-05-09T23:55:42.067Z,7.07
2024-05-09T23:58:09.666Z,9.52
